Ana Sayfa
METAR-TAF:

METAR-TAF

Havaalanları :

Edenton, Kuzey Carolina, Amerika Birleşik Devletleri

Enlem: 36-01-40N, Boylam: 076-34-02W, yükseklik: 6 m

Güncel hava durumu gözlemi

Rapor saat 15:35 UTC de 23 dakika önce yapıldı.
Rüzgar kuzeydoğudan 9 kt ve 14 kt'a kadar ani rüzgarlar, kuzey ve doğu arasında değişken
Sıcaklık 23°C
Nem 65%
Basınç 1019 hPa
Görüş mesafesi: 16.1 km
4100 ft yükseklikte çok bulutlu

METAR: KEDE 241535Z AUTO 04009G14KT 010V080 10SM OVC041 23/16 A3009 RMK AO2 T02300160

Saat: 11:58 (15:58 UTC)


TAF: eksik

4.000'den fazla havaalanı için hava durumu gözlemleri ve tahminleri (METAR ve TAF raporları).

Kullanılabilir istasyonlar harita üzerinde sarı ve kırmızı noktalarla gösterilir.

İstasyonun adını görmek için fareyi noktanın üzerinde gezdirin.

Sonrasında hava gözlem ve tahminlerini görmek için tıklayın.

Haritayı değiştirmek için: yaklaştırmak için siyah artı işaretli yeşil düğmeye ve uzaklaştırmak için de eksi işaretli düğmeye hızla tıklayın; bitişik haritalar için yeşil okları kullanın.


METAR-TAF: